Time;durP1;ratioP1;P1;durP2;ratioP2;P2;SDS_P1;SDS_P2;PMS_P1;PMS_P2;Temp;Humidity;BMP_temperature;BMP_pressure;BME280_temperature;BME280_humidity;BME280_pressure;Samples;Min_cycle;Max_cycle;Signal;HPM_P1;HPM_P2
2023/07/26 00:00:43;;;;;;;;;;;;;;;16.67;54.60;99761.06;4996535;28;1179;-62
2023/07/26 00:03:09;;;;;;;;;;;;;;;16.65;54.71;99763.28;4986868;28;976;-60
2023/07/26 00:05:34;;;;;;;;;;;;;;;16.67;54.67;99761.06;4993134;28;1076;-60
2023/07/26 00:08:00;;;;;;;;;;;;;;;16.64;54.77;99761.66;4996258;28;1236;-60
2023/07/26 00:10:25;;;;;;;;;;;;;;;16.66;54.78;99747.63;4996401;28;1132;-61
2023/07/26 00:12:50;;;;;;;;;;;;;;;16.68;54.55;99751.72;4996479;28;1980;-61
2023/07/26 00:15:16;;;;;;;;;;;;;;;16.65;54.74;99755.06;4995761;28;1072;-61
2023/07/26 00:17:42;;;;;;;;;;;;;;;16.66;54.81;99748.47;5000972;28;1004;-61
2023/07/26 00:20:07;;;;;;;;;;;;;;;16.65;54.56;99737.75;4983454;28;1032;-61
2023/07/26 00:22:33;;;;;;;;;;;;;;;16.71;54.66;99740.13;4987524;28;1115;-61
2023/07/26 00:25:00;;;;;;;;;;;;;;;16.63;54.49;99738.06;4979412;28;1080;-61
2023/07/26 00:27:26;;;;;;;;;;;;;;;16.64;54.59;99723.22;4997459;28;906;-61
2023/07/26 00:29:51;;;;;;;;;;;;;;;16.61;54.64;99729.31;5014702;28;1304;-61
2023/07/26 00:32:16;;;;;;;;;;;;;;;16.65;54.44;99735.00;4999676;28;1982;-60
2023/07/26 00:34:42;;;;;;;;;;;;;;;16.55;54.71;99734.09;4995558;28;1047;-60
2023/07/26 00:37:07;;;;;;;;;;;;;;;16.59;54.75;99731.53;4980390;28;1132;-61
2023/07/26 00:39:34;;;;;;;;;;;;;;;16.58;54.48;99724.44;4996200;28;906;-61
2023/07/26 00:42:00;;;;;;;;;;;;;;;16.58;54.72;99725.25;4999696;28;1035;-61
2023/07/26 00:44:25;;;;;;;;;;;;;;;16.58;54.63;99713.47;4999173;28;1083;-62
2023/07/26 00:46:54;;;;;;;;;;;;;;;16.56;54.78;99715.69;4999535;28;1060;-61
2023/07/26 00:49:19;;;;;;;;;;;;;;;16.60;54.63;99720.25;4983662;28;1112;-61
2023/07/26 00:51:44;;;;;;;;;;;;;;;16.57;54.85;99714.56;4996934;28;1973;-61
2023/07/26 00:54:10;;;;;;;;;;;;;;;16.60;54.43;99713.97;4999364;28;1172;-61
2023/07/26 00:56:35;;;;;;;;;;;;;;;16.62;54.56;99711.75;4999463;28;1147;-61
2023/07/26 00:59:01;;;;;;;;;;;;;;;16.58;54.69;99713.47;5010734;28;1084;-61
2023/07/26 01:01:27;;;;;;;;;;;;;;;16.60;54.67;99703.00;4999453;28;1136;-61
2023/07/26 01:03:52;;;;;;;;;;;;;;;16.56;54.51;99705.53;4995716;28;892;-60
2023/07/26 01:06:30;;;;;;;;;;;;;;;16.58;54.76;99699.75;4987883;28;1075;-61
2023/07/26 01:09:04;;;;;;;;;;;;;;;16.55;54.75;99692.09;4998797;28;1210;-61
2023/07/26 01:11:40;;;;;;;;;;;;;;;16.57;54.67;99689.88;4999112;28;1906;-61
2023/07/26 01:14:12;;;;;;;;;;;;;;;16.52;54.82;99689.94;4997703;28;1217;-61
2023/07/26 01:16:38;;;;;;;;;;;;;;;16.54;54.64;99690.47;5008286;28;1048;-61
2023/07/26 01:19:03;;;;;;;;;;;;;;;16.52;54.73;99687.19;4997853;28;1555;-61
2023/07/26 01:21:32;;;;;;;;;;;;;;;16.52;54.67;99696.28;4999025;28;1148;-61
2023/07/26 01:23:58;;;;;;;;;;;;;;;16.57;54.80;99689.88;4998812;28;1191;-61
2023/07/26 01:26:23;;;;;;;;;;;;;;;16.57;54.49;99684.38;5007799;28;1539;-61
2023/07/26 01:28:49;;;;;;;;;;;;;;;16.50;54.80;99681.22;4998340;28;1122;-60
2023/07/26 01:31:14;;;;;;;;;;;;;;;16.55;54.49;99690.19;4986725;28;1910;-61
2023/07/26 01:33:40;;;;;;;;;;;;;;;16.55;54.50;99683.84;4998698;28;1080;-60
2023/07/26 01:36:06;;;;;;;;;;;;;;;16.53;54.63;99686.09;5007152;28;1156;-60
2023/07/26 01:38:31;;;;;;;;;;;;;;;16.52;54.79;99678.97;5000071;28;1124;-59
2023/07/26 01:40:57;;;;;;;;;;;;;;;16.49;54.82;99682.31;5013730;28;1035;-60
2023/07/26 01:43:22;;;;;;;;;;;;;;;16.54;54.43;99688.53;4991796;28;1064;-60
2023/07/26 01:45:49;;;;;;;;;;;;;;;16.54;54.48;99674.81;4991036;28;1057;-61
2023/07/26 01:48:14;;;;;;;;;;;;;;;16.52;54.53;99678.97;4997075;28;1909;-60
2023/07/26 01:50:40;;;;;;;;;;;;;;;16.51;54.46;99677.31;4989323;28;1139;-60
2023/07/26 01:53:05;;;;;;;;;;;;;;;16.50;54.61;99672.97;4997698;28;1910;-62
2023/07/26 01:55:31;;;;;;;;;;;;;;;16.53;54.49;99677.88;4997976;28;1012;-63
2023/07/26 01:57:56;;;;;;;;;;;;;;;16.54;54.48;99679.50;4996905;28;1135;-61
2023/07/26 02:00:22;;;;;;;;;;;;;;;16.48;54.49;99672.44;4996769;28;1300;-61
2023/07/26 02:02:49;;;;;;;;;;;;;;;16.45;54.68;99664.81;5000373;28;1421;-61
2023/07/26 02:05:16;;;;;;;;;;;;;;;16.48;54.66;99658.72;4996845;28;1105;-61
2023/07/26 02:07:42;;;;;;;;;;;;;;;16.42;54.63;99661.56;4996877;28;1280;-61
2023/07/26 02:10:08;;;;;;;;;;;;;;;16.48;54.50;99664.22;4993819;28;1657;-61
2023/07/26 02:12:35;;;;;;;;;;;;;;;16.46;54.67;99671.94;5000596;28;1882;-61
2023/07/26 02:15:00;;;;;;;;;;;;;;;16.50;54.32;99664.75;4989791;28;1080;-60
2023/07/26 02:17:26;;;;;;;;;;;;;;;16.54;54.22;99660.28;4991233;28;1143;-62
2023/07/26 02:19:51;;;;;;;;;;;;;;;16.47;54.43;99666.16;4991897;28;1123;-61
2023/07/26 02:22:17;;;;;;;;;;;;;;;16.47;54.63;99659.88;4985170;28;1127;-60
2023/07/26 02:24:42;;;;;;;;;;;;;;;16.47;54.68;99648.88;4996126;28;984;-60
2023/07/26 02:27:08;;;;;;;;;;;;;;;16.40;54.81;99663.78;4982657;28;1068;-60
2023/07/26 02:29:34;;;;;;;;;;;;;;;16.48;54.45;99661.47;4983203;28;1441;-60
2023/07/26 02:32:00;;;;;;;;;;;;;;;16.41;54.59;99656.38;4984581;28;1906;-61
2023/07/26 02:34:25;;;;;;;;;;;;;;;16.48;54.42;99659.56;4992606;28;1140;-60
2023/07/26 02:36:51;;;;;;;;;;;;;;;16.48;54.55;99662.31;4997493;28;1279;-60
2023/07/26 02:39:16;;;;;;;;;;;;;;;16.45;54.56;99656.59;4997294;28;1167;-60
2023/07/26 02:41:42;;;;;;;;;;;;;;;16.43;54.64;99654.94;4991181;28;1112;-60
2023/07/26 02:44:07;;;;;;;;;;;;;;;16.45;54.50;99651.09;4989081;28;1096;-60
2023/07/26 02:46:33;;;;;;;;;;;;;;;16.47;54.63;99652.44;4997203;28;1124;-60
2023/07/26 02:48:58;;;;;;;;;;;;;;;16.46;54.44;99644.50;4995792;28;1146;-60
2023/07/26 02:51:23;;;;;;;;;;;;;;;16.45;54.57;99648.34;4996605;28;1914;-60
2023/07/26 02:53:49;;;;;;;;;;;;;;;16.42;54.41;99645.13;4985234;28;1053;-61
2023/07/26 02:56:15;;;;;;;;;;;;;;;16.40;54.43;99650.06;4995089;28;1336;-61
2023/07/26 02:58:41;;;;;;;;;;;;;;;16.44;54.58;99644.81;4997726;28;1144;-61
2023/07/26 03:01:06;;;;;;;;;;;;;;;16.42;54.72;99645.13;4977130;28;1454;-61
2023/07/26 03:03:32;;;;;;;;;;;;;;;16.39;54.53;99631.97;4989353;28;1172;-62
2023/07/26 03:05:57;;;;;;;;;;;;;;;16.40;54.65;99639.09;4989777;28;1287;-63
2023/07/26 03:08:23;;;;;;;;;;;;;;;16.46;54.25;99628.03;4988537;28;1168;-61
2023/07/26 03:10:52;;;;;;;;;;;;;;;16.41;54.70;99632.50;4977614;28;1127;-60
2023/07/26 03:13:17;;;;;;;;;;;;;;;16.43;54.65;99643.19;4989749;28;1980;-61
2023/07/26 03:15:43;;;;;;;;;;;;;;;16.45;54.40;99640.13;4996540;28;1087;-57
2023/07/26 03:18:08;;;;;;;;;;;;;;;16.48;54.28;99645.00;4990985;28;1455;-57
2023/07/26 03:20:34;;;;;;;;;;;;;;;16.41;54.64;99637.16;4995460;28;1568;-59
2023/07/26 03:23:00;;;;;;;;;;;;;;;16.42;54.45;99634.13;4996716;28;1167;-57
2023/07/26 03:25:25;;;;;;;;;;;;;;;16.33;54.70;99630.44;4987083;28;1255;-56
2023/07/26 03:27:51;;;;;;;;;;;;;;;16.38;54.59;99630.38;4991888;28;1148;-57
2023/07/26 03:30:16;;;;;;;;;;;;;;;16.45;54.47;99642.88;4995919;28;1091;-57
2023/07/26 03:32:42;;;;;;;;;;;;;;;16.40;54.36;99633.63;4994807;28;1910;-57
2023/07/26 03:35:07;;;;;;;;;;;;;;;16.40;54.41;99636.34;4985491;28;1223;-58
2023/07/26 03:37:33;;;;;;;;;;;;;;;16.43;54.42;99629.47;4996718;28;1045;-56
2023/07/26 03:39:59;;;;;;;;;;;;;;;16.39;54.50;99629.22;4996500;28;1574;-58
2023/07/26 03:42:24;;;;;;;;;;;;;;;16.32;54.76;99622.50;4996755;28;1124;-57
2023/07/26 03:44:50;;;;;;;;;;;;;;;16.45;54.43;99626.41;4998384;28;1122;-57
2023/07/26 03:47:15;;;;;;;;;;;;;;;16.39;54.61;99628.44;4996385;28;1187;-57
2023/07/26 03:49:41;;;;;;;;;;;;;;;16.37;54.63;99625.19;4996313;28;1102;-59
2023/07/26 03:52:07;;;;;;;;;;;;;;;16.32;55.03;99623.31;4995484;28;1987;-61
2023/07/26 03:54:32;;;;;;;;;;;;;;;16.32;55.45;99617.84;4996063;28;1381;-59
2023/07/26 03:56:59;;;;;;;;;;;;;;;16.29;55.83;99623.13;5011285;28;1140;-60
2023/07/26 03:59:24;;;;;;;;;;;;;;;16.33;55.93;99624.97;4996474;28;1107;-62
2023/07/26 04:01:50;;;;;;;;;;;;;;;16.39;56.18;99636.66;4988196;28;1013;-61
2023/07/26 04:04:15;;;;;;;;;;;;;;;16.43;56.10;99630.25;4995952;28;1160;-60
2023/07/26 04:06:41;;;;;;;;;;;;;;;16.45;56.04;99624.47;5000478;28;1099;-66
2023/07/26 04:09:06;;;;;;;;;;;;;;;16.38;56.12;99624.88;4994649;28;1144;-63
2023/07/26 04:11:32;;;;;;;;;;;;;;;16.39;56.04;99623.75;4992146;28;1971;-61
2023/07/26 04:13:57;;;;;;;;;;;;;;;16.39;55.89;99626.50;5000081;28;1103;-62
2023/07/26 04:16:23;;;;;;;;;;;;;;;16.34;55.81;99621.09;4999928;28;1001;-63
2023/07/26 04:18:48;;;;;;;;;;;;;;;16.35;55.56;99625.47;4982112;28;1120;-61
2023/07/26 04:21:14;;;;;;;;;;;;;;;16.40;55.51;99621.84;4992005;28;1040;-61
2023/07/26 04:23:40;;;;;;;;;;;;;;;16.35;55.76;99616.41;4999660;28;1136;-65
2023/07/26 04:26:06;;;;;;;;;;;;;;;16.39;55.49;99622.94;4999436;28;1055;-62
2023/07/26 04:28:31;;;;;;;;;;;;;;;16.38;55.48;99616.66;4999180;28;1167;-65
2023/07/26 04:30:57;;;;;;;;;;;;;;;16.39;55.62;99629.22;5006646;28;1248;-65
2023/07/26 04:33:22;;;;;;;;;;;;;;;16.37;55.41;99619.69;4998990;28;1902;-64
2023/07/26 04:35:48;;;;;;;;;;;;;;;16.43;55.25;99626.72;4999582;28;1095;-63
2023/07/26 04:38:13;;;;;;;;;;;;;;;16.41;55.29;99613.28;4984985;28;1140;-66
2023/07/26 04:40:39;;;;;;;;;;;;;;;16.39;55.58;99617.44;4998766;28;1397;-65
2023/07/26 04:43:04;;;;;;;;;;;;;;;16.39;55.23;99615.50;4998956;28;1291;-63
2023/07/26 04:45:30;;;;;;;;;;;;;;;16.35;55.36;99617.22;4998847;28;1317;-67
2023/07/26 04:47:55;;;;;;;;;;;;;;;16.36;55.49;99612.56;4998738;28;1396;-67
2023/07/26 04:50:21;;;;;;;;;;;;;;;17.22;56.37;99611.25;4998623;28;1333;-68
2023/07/26 04:52:46;;;;;;;;;;;;;;;16.58;55.96;99615.47;4998677;28;1910;-64
2023/07/26 04:55:11;;;;;;;;;;;;;;;16.42;54.18;99617.69;4999552;28;1060;-67
2023/07/26 04:57:38;;;;;;;;;;;;;;;16.39;52.88;99611.97;4998423;28;1104;-63
2023/07/26 05:00:03;;;;;;;;;;;;;;;16.39;51.72;99611.97;4998599;28;1309;-64
2023/07/26 05:02:29;;;;;;;;;;;;;;;16.33;51.39;99613.19;4997459;28;1392;-63
2023/07/26 05:04:54;;;;;;;;;;;;;;;16.28;51.12;99605.81;4998098;28;1191;-64
2023/07/26 05:07:20;;;;;;;;;;;;;;;16.35;50.58;99605.44;4998564;28;1300;-65
2023/07/26 05:09:45;;;;;;;;;;;;;;;16.38;50.35;99607.59;4997821;28;1626;-66
2023/07/26 05:12:11;;;;;;;;;;;;;;;16.36;50.14;99607.09;4998489;28;1921;-62
2023/07/26 05:14:41;;;;;;;;;;;;;;;16.34;49.87;99610.13;4997739;28;1348;-67
2023/07/26 05:17:06;;;;;;;;;;;;;;;16.41;49.66;99607.81;4998439;28;1114;-62
2023/07/26 05:19:32;;;;;;;;;;;;;;;16.43;49.42;99602.81;4993265;28;1106;-62
2023/07/26 05:21:57;;;;;;;;;;;;;;;16.43;49.42;99597.34;4991150;28;1040;-61
2023/07/26 05:24:23;;;;;;;;;;;;;;;16.49;49.03;99600.00;4999495;28;1228;-60
2023/07/26 05:26:48;;;;;;;;;;;;;;;16.50;48.94;99599.69;5006515;28;1123;-65
2023/07/26 05:29:14;;;;;;;;;;;;;;;16.68;48.83;99598.00;4998830;28;1083;-56
2023/07/26 05:31:39;;;;;;;;;;;;;;;16.67;48.90;99593.63;4998410;28;1907;-56
2023/07/26 05:34:05;;;;;;;;;;;;;;;16.62;48.63;99596.47;4991262;28;965;-57
2023/07/26 05:36:30;;;;;;;;;;;;;;;16.63;48.76;99589.84;4997878;28;1151;-58
2023/07/26 05:38:55;;;;;;;;;;;;;;;16.65;48.69;99593.13;4997966;28;1167;-55
2023/07/26 05:41:21;;;;;;;;;;;;;;;16.60;48.56;99595.94;4998187;28;858;-55
2023/07/26 05:43:46;;;;;;;;;;;;;;;16.63;48.72;99589.84;4998088;28;1128;-59
2023/07/26 05:46:12;;;;;;;;;;;;;;;16.73;48.29;99589.69;4998175;28;1215;-57
2023/07/26 05:48:37;;;;;;;;;;;;;;;16.73;48.21;99586.94;4998135;28;1076;-60
2023/07/26 05:51:03;;;;;;;;;;;;;;;16.74;48.44;99583.06;4997108;28;1109;-60
2023/07/26 05:53:28;;;;;;;;;;;;;;;16.70;48.64;99579.28;4997351;28;1950;-64
2023/07/26 05:55:54;;;;;;;;;;;;;;;16.76;48.10;99580.84;4997846;28;1087;-63
2023/07/26 05:58:19;;;;;;;;;;;;;;;16.81;48.44;99574.41;4998142;28;1082;-65
2023/07/26 06:00:45;;;;;;;;;;;;;;;16.80;48.46;99578.28;4997583;28;1036;-64
2023/07/26 06:03:10;;;;;;;;;;;;;;;16.84;48.23;99573.00;4993779;28;1239;-63
2023/07/26 06:05:36;;;;;;;;;;;;;;;16.81;48.67;99568.13;4997176;28;1235;-62
2023/07/26 06:08:01;;;;;;;;;;;;;;;16.84;48.68;99568.31;4996262;28;1176;-64
2023/07/26 06:10:27;;;;;;;;;;;;;;;16.88;48.51;99561.13;5003570;28;1217;-63
2023/07/26 06:12:52;;;;;;;;;;;;;;;16.88;48.80;99565.78;5008768;28;1906;-58
2023/07/26 06:15:18;;;;;;;;;;;;;;;17.03;48.69;99568.25;4998159;28;1005;-61
2023/07/26 06:17:43;;;;;;;;;;;;;;;17.10;48.40;99565.91;4997771;28;912;-55
2023/07/26 06:20:10;;;;;;;;;;;;;;;17.14;48.09;99568.84;4998423;28;989;-53
2023/07/26 06:22:36;;;;;;;;;;;;;;;17.10;48.44;99565.09;4986935;28;1075;-55
2023/07/26 06:25:02;;;;;;;;;;;;;;;17.15;48.20;99561.41;4997368;28;1008;-57
2023/07/26 06:27:28;;;;;;;;;;;;;;;17.07;48.34;99576.72;4997217;28;1296;-55
2023/07/26 06:29:53;;;;;;;;;;;;;;;17.16;48.27;99563.84;4993311;28;1083;-56
2023/07/26 06:32:19;;;;;;;;;;;;;;;17.21;48.20;99554.72;4987370;28;1906;-58
2023/07/26 06:34:44;;;;;;;;;;;;;;;17.17;48.36;99559.19;4991265;28;1219;-57
2023/07/26 06:37:09;;;;;;;;;;;;;;;17.24;48.35;99570.59;4977401;28;1068;-60
2023/07/26 06:39:35;;;;;;;;;;;;;;;17.28;48.04;99572.41;4991139;28;1291;-61
2023/07/26 06:42:00;;;;;;;;;;;;;;;17.25;48.30;99577.69;4983036;28;1387;-61
2023/07/26 06:44:26;;;;;;;;;;;;;;;17.34;48.14;99567.59;4995234;28;1330;-61
2023/07/26 06:46:51;;;;;;;;;;;;;;;17.38;48.00;99573.31;4991215;28;1017;-61
2023/07/26 06:49:17;;;;;;;;;;;;;;;17.33;47.95;99567.91;4996401;28;1064;-60
2023/07/26 06:51:42;;;;;;;;;;;;;;;17.34;47.93;99577.78;4994987;28;1959;-60
2023/07/26 06:54:08;;;;;;;;;;;;;;;17.35;47.80;99562.91;4996553;28;1024;-60
2023/07/26 06:56:33;;;;;;;;;;;;;;;17.36;47.80;99568.13;4996793;28;1096;-59
2023/07/26 06:58:59;;;;;;;;;;;;;;;17.40;47.64;99569.13;4996226;28;1140;-61
2023/07/26 07:01:24;;;;;;;;;;;;;;;17.45;47.76;99573.69;4995079;28;1000;-60
2023/07/26 07:03:50;;;;;;;;;;;;;;;17.50;47.43;99570.84;4989774;28;1021;-62
2023/07/26 07:06:16;;;;;;;;;;;;;;;17.42;47.56;99577.06;4990991;28;1027;-60
2023/07/26 07:08:41;;;;;;;;;;;;;;;17.43;48.54;99574.00;4997012;28;1236;-59
2023/07/26 07:11:06;;;;;;;;;;;;;;;17.50;48.09;99564.50;4997167;28;1144;-61
2023/07/26 07:13:38;;;;;;;;;;;;;;;17.51;47.84;99563.41;4996692;28;1914;-62
2023/07/26 07:16:04;;;;;;;;;;;;;;;17.45;47.97;99555.25;4992291;28;1348;-61
2023/07/26 07:18:30;;;;;;;;;;;;;;;17.44;47.98;99556.38;4992071;28;1056;-58
2023/07/26 07:20:57;;;;;;;;;;;;;;;17.44;47.73;99556.38;4990690;28;1282;-61
2023/07/26 07:23:23;;;;;;;;;;;;;;;17.51;47.83;99563.41;4989445;28;1106;-62
2023/07/26 07:25:48;;;;;;;;;;;;;;;17.59;47.49;99555.22;4996543;28;1051;-59
2023/07/26 07:28:14;;;;;;;;;;;;;;;17.58;47.44;99553.59;4996824;28;1064;-61
2023/07/26 07:30:39;;;;;;;;;;;;;;;17.53;47.71;99555.66;4996414;28;875;-62
2023/07/26 07:33:05;;;;;;;;;;;;;;;17.50;47.67;99550.78;4994595;28;1991;-61
2023/07/26 07:35:30;;;;;;;;;;;;;;;17.56;47.34;99546.81;4996654;28;1136;-62
2023/07/26 07:37:56;;;;;;;;;;;;;;;17.58;47.46;99553.59;4998784;28;1163;-55
2023/07/26 07:40:21;;;;;;;;;;;;;;;17.56;47.38;99549.56;5000482;28;1048;-61
2023/07/26 07:42:47;;;;;;;;;;;;;;;17.60;47.15;99554.09;5000223;28;884;-61
2023/07/26 07:45:12;;;;;;;;;;;;;;;17.65;47.04;99553.16;4998495;28;1442;-58
2023/07/26 07:47:38;;;;;;;;;;;;;;;17.66;47.15;99557.56;5000312;28;1111;-63
2023/07/26 07:50:04;;;;;;;;;;;;;;;17.72;47.05;99552.75;5000516;28;1191;-59
2023/07/26 07:52:29;;;;;;;;;;;;;;;17.72;46.95;99537.06;4999733;28;1971;-59
2023/07/26 07:54:54;;;;;;;;;;;;;;;17.64;47.07;99537.78;4999547;28;942;-61
2023/07/26 07:57:21;;;;;;;;;;;;;;;17.69;47.16;99537.69;5000144;28;1120;-62
2023/07/26 07:59:46;;;;;;;;;;;;;;;17.60;47.62;99540.38;4999739;28;1215;-58
2023/07/26 08:02:12;;;;;;;;;;;;;;;17.73;47.31;99521.38;5000091;28;1043;-62
2023/07/26 08:04:38;;;;;;;;;;;;;;;17.71;47.23;99518.94;4999867;28;1171;-57
2023/07/26 08:07:04;;;;;;;;;;;;;;;17.72;47.10;99512.31;4999268;28;1003;-60
2023/07/26 08:09:29;;;;;;;;;;;;;;;17.66;47.42;99508.06;5000011;28;1297;-62
2023/07/26 08:11:56;;;;;;;;;;;;;;;17.72;47.17;99509.56;4999854;28;1906;-63
2023/07/26 08:14:21;;;;;;;;;;;;;;;17.78;47.17;99513.00;5000275;28;1273;-61
2023/07/26 08:16:46;;;;;;;;;;;;;;;17.77;47.18;99517.69;4999920;28;1356;-58
2023/07/26 08:19:12;;;;;;;;;;;;;;;17.72;47.32;99500.50;4999527;28;1132;-59
2023/07/26 08:21:37;;;;;;;;;;;;;;;17.69;47.10;99490.94;5000213;28;1399;-59
2023/07/26 08:24:03;;;;;;;;;;;;;;;17.79;47.21;99487.13;4998936;28;1299;-62
2023/07/26 08:26:28;;;;;;;;;;;;;;;17.77;47.12;99484.69;4995622;28;1351;-61
2023/07/26 08:28:54;;;;;;;;;;;;;;;17.92;46.95;99485.47;4996737;28;1300;-62
2023/07/26 08:31:19;;;;;;;;;;;;;;;17.89;46.86;99491.56;4998616;28;1901;-64
2023/07/26 08:33:45;;;;;;;;;;;;;;;17.86;47.34;99493.00;4998357;28;1279;-63
2023/07/26 08:36:10;;;;;;;;;;;;;;;17.96;47.16;99489.22;4998956;28;1188;-62
2023/07/26 08:38:36;;;;;;;;;;;;;;;17.91;47.25;99475.59;4998778;28;1211;-60
2023/07/26 08:41:01;;;;;;;;;;;;;;;17.84;47.54;99455.94;4999055;28;1243;-63
2023/07/26 08:43:29;;;;;;;;;;;;;;;17.87;47.27;99458.09;4996269;28;985;-64
2023/07/26 08:45:54;;;;;;;;;;;;;;;17.87;47.28;99458.09;4997960;28;1247;-62
2023/07/26 08:48:20;;;;;;;;;;;;;;;17.88;47.47;99445.94;4999162;28;1184;-64
2023/07/26 08:50:45;;;;;;;;;;;;;;;17.88;47.52;99445.94;4999531;28;1294;-58
2023/07/26 08:53:10;;;;;;;;;;;;;;;17.95;47.45;99441.66;4998252;28;1918;-62
2023/07/26 08:55:36;;;;;;;;;;;;;;;17.92;47.71;99452.47;4998110;28;1404;-62
2023/07/26 08:58:02;;;;;;;;;;;;;;;17.95;47.49;99444.41;4998661;28;1235;-61
2023/07/26 09:00:28;;;;;;;;;;;;;;;18.05;47.41;99461.78;4998773;28;1283;-65
2023/07/26 09:03:00;;;;;;;;;;;;;;;18.01;47.55;99452.53;4998359;28;1140;-63
2023/07/26 09:05:25;;;;;;;;;;;;;;;18.07;47.19;99443.81;5009941;28;1157;-63
2023/07/26 09:07:51;;;;;;;;;;;;;;;17.96;47.52;99439.69;4997634;28;1237;-60
2023/07/26 09:10:23;;;;;;;;;;;;;;;17.98;47.51;99433.88;4998252;28;1044;-63
2023/07/26 09:12:49;;;;;;;;;;;;;;;18.10;47.38;99436.88;4997485;28;1902;-63
2023/07/26 09:15:15;;;;;;;;;;;;;;;18.05;47.63;99434.28;4998572;28;1210;-58
2023/07/26 09:17:41;;;;;;;;;;;;;;;18.03;47.73;99444.75;5002744;28;1025;-60
2023/07/26 09:20:27;;;;;;;;;;;;;;;18.06;47.63;99452.38;4999356;28;1155;-62
2023/07/26 09:22:57;;;;;;;;;;;;;;;18.01;47.57;99447.81;4998840;28;1788;-62
2023/07/26 09:25:30;;;;;;;;;;;;;;;18.09;47.61;99452.56;4998578;28;1373;-62
2023/07/26 09:27:56;;;;;;;;;;;;;;;18.03;47.81;99447.50;4997655;28;1043;-64
2023/07/26 09:30:21;;;;;;;;;;;;;;;18.06;47.71;99441.38;4998406;28;1059;-59
2023/07/26 09:32:47;;;;;;;;;;;;;;;18.12;47.70;99451.94;4998724;28;1910;-60
2023/07/26 09:35:12;;;;;;;;;;;;;;;18.16;47.49;99432.03;5001178;28;1388;-60
2023/07/26 09:37:38;;;;;;;;;;;;;;;18.15;47.40;99427.69;4998661;28;1513;-62
2023/07/26 09:40:03;;;;;;;;;;;;;;;18.21;47.32;99434.66;5014390;28;1095;-62
2023/07/26 09:42:41;;;;;;;;;;;;;;;18.13;47.54;99425.22;4996056;28;1141;-63
2023/07/26 09:45:07;;;;;;;;;;;;;;;18.19;47.46;99415.72;4998038;28;1266;-64
2023/07/26 09:47:33;;;;;;;;;;;;;;;18.27;47.22;99416.88;4998041;28;1219;-62
2023/07/26 09:49:59;;;;;;;;;;;;;;;18.13;47.77;99409.53;4996943;28;1347;-62
2023/07/26 09:52:24;;;;;;;;;;;;;;;18.20;47.74;99413.75;4997080;28;1918;-62
2023/07/26 09:54:50;;;;;;;;;;;;;;;18.26;47.53;99407.00;4996264;28;1234;-60
2023/07/26 09:57:17;;;;;;;;;;;;;;;18.19;47.62;99404.72;4996861;28;1239;-57
2023/07/26 09:59:42;;;;;;;;;;;;;;;18.26;47.49;99401.50;4995860;28;1009;-57
2023/07/26 10:02:09;;;;;;;;;;;;;;;18.33;47.39;99388.09;5007017;28;1345;-61
2023/07/26 10:04:39;;;;;;;;;;;;;;;18.37;47.12;99388.25;4997394;28;1270;-60
2023/07/26 10:07:07;;;;;;;;;;;;;;;18.34;47.21;99386.13;5009108;28;1238;-62
2023/07/26 10:09:32;;;;;;;;;;;;;;;18.35;47.30;99387.75;4996142;28;1298;-62
2023/07/26 10:11:58;;;;;;;;;;;;;;;18.35;47.59;99376.75;5011058;28;1906;-65
2023/07/26 10:14:24;;;;;;;;;;;;;;;18.35;47.48;99372.06;4998061;28;1292;-64
2023/07/26 10:16:49;;;;;;;;;;;;;;;18.33;47.58;99374.31;5001098;28;1239;-60
2023/07/26 10:19:15;;;;;;;;;;;;;;;18.42;47.66;99371.59;5014180;28;1203;-59
2023/07/26 10:21:40;;;;;;;;;;;;;;;18.50;47.48;99367.25;5005765;28;1348;-60
2023/07/26 10:24:06;;;;;;;;;;;;;;;18.43;47.76;99360.25;4996018;28;1531;-59
2023/07/26 10:26:33;;;;;;;;;;;;;;;18.51;47.30;99360.59;5015340;28;1305;-59
2023/07/26 10:29:02;;;;;;;;;;;;;;;18.42;47.45;99355.88;4996181;28;1322;-58
2023/07/26 10:31:27;;;;;;;;;;;;;;;18.42;47.66;99352.31;4996059;28;1934;-59
2023/07/26 10:33:54;;;;;;;;;;;;;;;18.43;47.59;99346.50;4996904;28;1293;-59
2023/07/26 10:36:19;;;;;;;;;;;;;;;18.59;47.35;99352.38;4997469;28;1357;-63
2023/07/26 10:38:48;;;;;;;;;;;;;;;18.51;47.84;99352.34;4997360;28;1290;-61
2023/07/26 10:41:21;;;;;;;;;;;;;;;18.47;47.99;99350.22;4997447;28;1131;-59
2023/07/26 10:43:46;;;;;;;;;;;;;;;18.56;47.68;99343.94;4990709;28;1083;-59
2023/07/26 10:46:13;;;;;;;;;;;;;;;18.54;47.65;99337.94;4995378;28;1531;-61
2023/07/26 10:48:39;;;;;;;;;;;;;;;18.54;47.68;99327.75;4996788;28;1385;-61
2023/07/26 10:51:20;;;;;;;;;;;;;;;18.57;47.55;99318.03;4997334;28;1345;-61
2023/07/26 10:53:45;;;;;;;;;;;;;;;18.58;47.67;99314.97;4995121;28;1918;-61
2023/07/26 10:56:11;;;;;;;;;;;;;;;18.59;47.62;99316.59;4996351;28;1088;-63
2023/07/26 10:58:45;;;;;;;;;;;;;;;18.66;47.29;99312.53;4991550;28;1612;-63
2023/07/26 11:01:16;;;;;;;;;;;;;;;18.62;47.55;99307.66;4988277;28;1087;-60
2023/07/26 11:03:42;;;;;;;;;;;;;;;18.57;47.71;99298.75;4996625;28;1167;-60
2023/07/26 11:06:08;;;;;;;;;;;;;;;18.65;47.46;99314.47;4996854;28;1314;-61
2023/07/26 11:08:47;;;;;;;;;;;;;;;18.66;47.44;99310.56;4994813;28;1050;-62
2023/07/26 11:11:16;;;;;;;;;;;;;;;18.64;47.54;99301.84;4995652;28;1164;-64
2023/07/26 11:13:42;;;;;;;;;;;;;;;18.59;47.48;99310.25;4995822;28;1954;-63
2023/07/26 11:16:08;;;;;;;;;;;;;;;18.72;47.24;99309.28;4995970;28;1180;-63
2023/07/26 11:18:40;;;;;;;;;;;;;;;18.61;47.78;99310.75;4996246;28;1259;-64
2023/07/26 11:21:05;;;;;;;;;;;;;;;18.64;47.67;99297.13;4983460;28;966;-63
2023/07/26 11:23:31;;;;;;;;;;;;;;;18.68;47.64;99308.31;4983922;28;1036;-62
2023/07/26 11:26:00;;;;;;;;;;;;;;;18.67;47.78;99294.88;4995781;28;1083;-62
2023/07/26 11:28:29;;;;;;;;;;;;;;;18.67;47.92;99290.19;4996348;28;1172;-62
2023/07/26 11:30:55;;;;;;;;;;;;;;;18.72;47.69;99287.25;4987364;28;1056;-62
2023/07/26 11:33:29;;;;;;;;;;;;;;;18.66;47.85;99294.06;4996143;28;1909;-62
2023/07/26 11:35:55;;;;;;;;;;;;;;;18.70;47.62;99278.50;4996954;28;1024;-63
2023/07/26 11:38:21;;;;;;;;;;;;;;;18.66;47.86;99277.53;4996505;28;1207;-62
2023/07/26 11:40:46;;;;;;;;;;;;;;;18.67;47.85;99272.84;4996260;28;1183;-62
2023/07/26 11:43:12;;;;;;;;;;;;;;;18.73;47.75;99269.63;4995919;28;1069;-63
2023/07/26 11:45:38;;;;;;;;;;;;;;;18.68;47.61;99264.25;4994936;28;1358;-63
2023/07/26 11:48:05;;;;;;;;;;;;;;;18.75;47.47;99264.59;4981470;28;1025;-63
2023/07/26 11:50:30;;;;;;;;;;;;;;;18.75;47.55;99263.78;4995957;28;1048;-63
2023/07/26 11:53:05;;;;;;;;;;;;;;;18.78;47.41;99257.63;4994996;28;1914;-63
2023/07/26 11:55:32;;;;;;;;;;;;;;;18.72;47.56;99248.72;4995839;28;1227;-64
2023/07/26 11:58:03;;;;;;;;;;;;;;;18.78;47.46;99249.34;4996052;28;1048;-64
2023/07/26 12:00:33;;;;;;;;;;;;;;;18.75;47.40;99248.06;4996026;28;1163;-64
2023/07/26 12:02:59;;;;;;;;;;;;;;;18.86;47.45;99239.44;4991795;28;1049;-63
2023/07/26 12:05:28;;;;;;;;;;;;;;;18.75;47.67;99244.50;4995645;28;1397;-61
2023/07/26 12:07:54;;;;;;;;;;;;;;;18.80;47.46;99239.63;4995492;28;1199;-62
2023/07/26 12:10:29;;;;;;;;;;;;;;;18.78;47.60;99236.38;4995929;28;1366;-61
2023/07/26 12:12:55;;;;;;;;;;;;;;;18.81;47.49;99241.25;4995928;28;1902;-60
2023/07/26 12:15:20;;;;;;;;;;;;;;;18.84;47.36;99233.47;4985745;28;1057;-57
2023/07/26 12:17:53;;;;;;;;;;;;;;;18.75;47.63;99242.56;4989393;28;1096;-63
2023/07/26 12:20:18;;;;;;;;;;;;;;;18.79;47.69;99238.00;4987157;28;1127;-63
2023/07/26 12:22:54;;;;;;;;;;;;;;;18.85;47.44;99238.66;4994834;28;1207;-64
2023/07/26 12:25:21;;;;;;;;;;;;;;;18.87;47.54;99232.81;4999510;28;1218;-64
2023/07/26 12:27:49;;;;;;;;;;;;;;;18.79;47.77;99223.44;4999577;28;992;-65
2023/07/26 12:30:18;;;;;;;;;;;;;;;18.83;47.67;99220.84;4997680;28;1436;-65
2023/07/26 12:32:44;;;;;;;;;;;;;;;18.86;47.45;99206.41;4998254;28;1976;-63
2023/07/26 12:35:36;;;;;;;;;;;;;;;18.86;47.52;99209.16;4999564;28;1243;-65
2023/07/26 12:38:08;;;;;;;;;;;;;;;18.92;47.35;99214.22;4997819;28;1216;-61
2023/07/26 12:40:34;;;;;;;;;;;;;;;18.96;47.12;99219.88;4998854;28;1239;-64
2023/07/26 12:42:59;;;;;;;;;;;;;;;18.91;47.16;99233.81;4999054;28;1100;-64
2023/07/26 12:45:25;;;;;;;;;;;;;;;18.92;47.25;99218.91;4997030;28;942;-60
2023/07/26 12:47:50;;;;;;;;;;;;;;;18.94;47.00;99217.47;4998340;28;1305;-60
2023/07/26 12:50:16;;;;;;;;;;;;;;;18.77;47.44;99220.19;4998429;28;1112;-59
2023/07/26 12:52:41;;;;;;;;;;;;;;;18.97;47.05;99211.28;4999134;28;1906;-64